METAR Data
IDs: Format: Raw Decoded Include TAF

Data at: 2354 UTC 29 May 2020

EGPH 292320Z VRB01KT CAVOK 12/11 Q1025
EGPH 292250Z VRB03KT CAVOK 12/10 Q1024
EGPH 292220Z 07003KT CAVOK 13/11 Q1024
EGPH 292150Z 07003KT CAVOK 14/12 Q1024
EGPH 292120Z 06003KT CAVOK 14/12 Q1024
EGPH 292050Z 35002KT CAVOK 16/13 Q1024
EGPH 292020Z 06004KT CAVOK 16/13 Q1024
EGPH 291950Z VRB01KT CAVOK 20/13 Q1024
EGPH 291920Z 13003KT CAVOK 20/12 Q1024
EGPH 291850Z 05003KT CAVOK 21/13 Q1024
EGPH 291820Z VRB03KT CAVOK 21/12 Q1024
EGPH 291750Z 03004KT 360V070 CAVOK 20/13 Q1024
EGPH 291720Z 02005KT CAVOK 20/12 Q1024
EGPH 291650Z 02005KT CAVOK 20/12 Q1024
EGPH 291620Z 02005KT 350V070 CAVOK 20/12 Q1024
EGPH 291550Z 04008KT CAVOK 21/12 Q1025
EGPH 291520Z 04010KT CAVOK 21/11 Q1025
EGPH 291450Z 05011KT CAVOK 22/12 Q1025
EGPH 291420Z 04009KT CAVOK 22/12 Q1025
EGPH 291350Z 05010KT CAVOK 22/12 Q1026
EGPH 291320Z 06011KT CAVOK 23/12 Q1026
EGPH 291250Z 06012KT CAVOK 23/11 Q1026
EGPH 291220Z 05009KT CAVOK 24/12 Q1026
EGPH 291150Z 05008KT CAVOK 23/12 Q1026
EGPH 291120Z 04007KT CAVOK 22/12 Q1027
EGPH 291050Z 04008KT CAVOK 22/12 Q1027
EGPH 291020Z 04007KT 010V070 CAVOK 21/13 Q1027
EGPH 290950Z 04007KT CAVOK 20/12 Q1027
EGPH 290920Z 04006KT CAVOK 20/13 Q1028
EGPH 290850Z 04006KT CAVOK 19/13 Q1028
EGPH 290820Z 06004KT 030V100 CAVOK 20/13 Q1028
EGPH 290750Z VRB02KT CAVOK 19/12 Q1028
EGPH 290720Z VRB02KT CAVOK 19/12 Q1028
EGPH 290650Z VRB01KT CAVOK 17/12 Q1028
EGPH 290620Z VRB01KT CAVOK 15/11 Q1028
EGPH 290550Z 00000KT CAVOK 13/11 Q1028
EGPH 290520Z 00000KT CAVOK 11/11 Q1028
EGPH 290450Z 34001KT CAVOK 10/10 Q1028
EGPH 290420Z 00000KT CAVOK 09/09 Q1028
EGPH 290350Z 00000KT CAVOK 09/09 Q1028
EGPH 290320Z VRB01KT 7000 NSC 08/08 Q1028
EGPH 290250Z 24001KT CAVOK 08/07 Q1028
EGPH 290220Z 26003KT CAVOK 10/09 Q1028
EGPH 290150Z VRB02KT CAVOK 10/10 Q1028
EGPH 290120Z 00000KT CAVOK 10/09 Q1028
EGPH 290050Z 24001KT CAVOK 10/09 Q1029
EGPH 290020Z 00000KT CAVOK 11/09 Q1029
EGPH 282350Z 25003KT CAVOK 13/10 Q1029
EGPH 282320Z 23002KT CAVOK 12/10 Q1029
EGPH 282250Z VRB01KT CAVOK 13/11 Q1029
EGPH 282220Z 32001KT CAVOK 14/11 Q1029
EGPH 282150Z VRB01KT CAVOK 15/12 Q1029
EGPH 282120Z 18004KT CAVOK 19/11 Q1029
EGPH 282050Z 20005KT CAVOK 19/13 Q1029
EGPH 282020Z 08003KT CAVOK 19/14 Q1029
EGPH 281950Z 05003KT CAVOK 20/14 Q1029
EGPH 281920Z 05001KT CAVOK 22/13 Q1029
EGPH 281850Z 36002KT CAVOK 23/12 Q1029
EGPH 281820Z VRB02KT CAVOK 23/11 Q1029
EGPH 281720Z VRB03KT CAVOK 24/11 Q1030
EGPH 281250Z 29007KT 250V360 CAVOK 23/11 Q1031
EGPH 281220Z 27007KT 230V320 CAVOK 23/12 Q1032